createdAt,value
2023-03-22T00:02:07.370Z,15.57
2023-03-22T00:04:34.711Z,15.17
2023-03-22T00:07:02.072Z,15.37
2023-03-22T00:09:29.460Z,14.30
2023-03-22T00:11:56.620Z,15.90
2023-03-22T00:14:24.150Z,15.10
2023-03-22T00:16:51.708Z,15.10
2023-03-22T00:19:19.030Z,16.13
2023-03-22T00:21:46.542Z,15.47
2023-03-22T00:24:13.801Z,16.27
2023-03-22T00:26:41.244Z,15.43
2023-03-22T00:29:08.656Z,15.50
2023-03-22T00:31:35.881Z,15.60
2023-03-22T00:34:03.146Z,15.50
2023-03-22T00:36:32.433Z,14.17
2023-03-22T00:39:00.239Z,15.90
2023-03-22T00:41:27.426Z,14.73
2023-03-22T00:43:55.034Z,16.00
2023-03-22T00:46:23.716Z,15.90
2023-03-22T00:48:51.704Z,16.50
2023-03-22T00:51:19.305Z,16.50
2023-03-22T00:53:50.923Z,15.17
2023-03-22T00:56:18.960Z,16.20
2023-03-22T00:58:56.375Z,15.83
2023-03-22T01:01:23.749Z,16.63
2023-03-22T01:03:51.190Z,15.67
2023-03-22T01:06:19.025Z,18.13
2023-03-22T01:08:46.870Z,16.03
2023-03-22T01:11:18.130Z,16.63
2023-03-22T01:13:45.608Z,17.43
2023-03-22T01:16:13.113Z,17.73
2023-03-22T01:18:41.946Z,17.00
2023-03-22T01:21:10.914Z,17.23
2023-03-22T01:23:39.149Z,16.80
2023-03-22T01:26:06.859Z,16.40
2023-03-22T01:28:34.429Z,16.33
2023-03-22T01:31:03.300Z,18.37
2023-03-22T01:33:31.204Z,17.63
2023-03-22T01:35:59.156Z,18.13
2023-03-22T01:38:27.334Z,18.30
2023-03-22T01:40:58.694Z,17.67
2023-03-22T01:43:27.492Z,15.43
2023-03-22T01:45:55.690Z,18.17
2023-03-22T01:48:47.048Z,17.50
2023-03-22T01:51:25.299Z,18.77
2023-03-22T01:54:31.833Z,16.73
2023-03-22T01:57:02.468Z,17.60
2023-03-22T01:59:39.884Z,18.97
2023-03-22T02:02:22.197Z,17.00
2023-03-22T02:04:58.375Z,17.50
2023-03-22T02:07:31.654Z,16.30
2023-03-22T02:10:02.976Z,17.10
2023-03-22T02:13:19.745Z,15.50
2023-03-22T02:16:29.680Z,15.40
2023-03-22T02:19:56.426Z,16.80
2023-03-22T02:23:07.476Z,17.00
2023-03-22T02:25:49.576Z,16.23
2023-03-22T02:28:42.306Z,17.20
2023-03-22T02:32:39.037Z,16.93
2023-03-22T02:35:54.611Z,16.37
2023-03-22T02:39:35.342Z,17.30
2023-03-22T02:42:55.927Z,15.50
2023-03-22T02:45:52.780Z,16.20
2023-03-22T02:48:40.411Z,18.50
2023-03-22T02:51:43.084Z,16.90
2023-03-22T02:54:26.359Z,16.30
2023-03-22T02:57:04.986Z,17.40
2023-03-22T02:59:40.983Z,15.80
2023-03-22T03:05:05.837Z,15.80
2023-03-22T03:07:35.040Z,15.10
2023-03-22T03:10:05.201Z,16.87
2023-03-22T03:12:32.855Z,15.37
2023-03-22T03:15:00.416Z,16.60
2023-03-22T03:18:11.649Z,16.67
2023-03-22T03:21:10.920Z,15.07
2023-03-22T03:24:33.677Z,16.77
2023-03-22T03:27:28.217Z,16.43
2023-03-22T03:30:29.202Z,15.73
2023-03-22T03:33:06.442Z,15.37
2023-03-22T03:35:48.625Z,15.27
2023-03-22T03:38:24.326Z,13.30
2023-03-22T03:41:05.405Z,15.23
2023-03-22T03:43:35.824Z,13.63
2023-03-22T03:46:04.434Z,14.40
2023-03-22T03:48:38.340Z,13.60
2023-03-22T03:51:06.818Z,14.97
2023-03-22T03:53:34.889Z,13.47
2023-03-22T03:56:02.157Z,14.67
2023-03-22T03:58:36.488Z,13.97
2023-03-22T04:01:04.552Z,14.23
2023-03-22T04:03:35.348Z,14.00
2023-03-22T04:06:03.904Z,14.50
2023-03-22T04:08:35.239Z,13.50
2023-03-22T04:11:03.635Z,14.43
2023-03-22T04:13:32.182Z,14.30
2023-03-22T04:16:03.100Z,15.13
2023-03-22T04:18:34.464Z,14.37
2023-03-22T04:21:06.613Z,13.73
2023-03-22T04:23:46.848Z,14.37
2023-03-22T04:26:14.905Z,14.57
2023-03-22T04:29:02.788Z,14.83
2023-03-22T04:31:34.085Z,13.90
2023-03-22T04:34:09.391Z,14.50
2023-03-22T04:36:55.748Z,14.53
2023-03-22T04:39:34.417Z,13.97
2023-03-22T04:42:26.806Z,15.00
2023-03-22T04:45:17.526Z,13.73
2023-03-22T04:47:50.134Z,14.30
2023-03-22T04:50:18.197Z,14.87
2023-03-22T04:52:51.514Z,15.13
2023-03-22T04:55:19.953Z,16.33
2023-03-22T04:57:47.138Z,14.27
2023-03-22T05:00:15.307Z,15.50
2023-03-22T05:02:43.550Z,14.53
2023-03-22T05:05:18.955Z,15.20
2023-03-22T05:07:48.523Z,15.33
2023-03-22T05:10:16.180Z,14.30
2023-03-22T05:12:43.506Z,14.67
2023-03-22T05:15:22.217Z,13.67
2023-03-22T05:17:51.606Z,13.80
2023-03-22T05:20:18.996Z,14.33
2023-03-22T05:22:57.086Z,15.30
2023-03-22T05:25:26.795Z,13.50
2023-03-22T05:27:54.867Z,12.60
2023-03-22T05:30:47.737Z,12.60
2023-03-22T05:33:25.126Z,13.30
2023-03-22T05:35:56.341Z,13.20
2023-03-22T05:38:25.031Z,14.00
2023-03-22T05:40:55.052Z,13.30
2023-03-22T05:43:22.605Z,14.03
2023-03-22T05:45:51.467Z,13.47
2023-03-22T05:48:37.280Z,13.33
2023-03-22T05:51:17.855Z,13.80
2023-03-22T05:53:49.215Z,13.40
2023-03-22T05:56:24.579Z,10.93
2023-03-22T05:59:00.248Z,13.50
2023-03-22T06:01:27.942Z,11.53
2023-03-22T06:04:09.547Z,12.93
2023-03-22T06:06:58.137Z,12.60
2023-03-22T06:09:46.592Z,12.40
2023-03-22T06:12:22.705Z,13.60
2023-03-22T06:14:54.042Z,12.10
2023-03-22T06:17:33.148Z,12.33
2023-03-22T06:20:00.661Z,13.23
2023-03-22T06:22:30.596Z,12.13
2023-03-22T06:24:58.642Z,13.13
2023-03-22T06:27:35.528Z,12.83
2023-03-22T06:30:04.531Z,12.50
2023-03-22T06:32:38.763Z,11.53
2023-03-22T06:35:08.974Z,13.20
2023-03-22T06:37:36.368Z,11.47
2023-03-22T06:40:06.154Z,12.20
2023-03-22T06:42:35.607Z,12.43
2023-03-22T06:45:08.860Z,12.80
2023-03-22T06:47:38.874Z,13.00
2023-03-22T06:50:38.418Z,12.73
2023-03-22T06:53:15.116Z,12.03
2023-03-22T06:55:47.645Z,11.67
2023-03-22T06:58:20.853Z,11.93
2023-03-22T07:00:49.447Z,11.67
2023-03-22T07:03:19.427Z,11.97
2023-03-22T07:05:52.197Z,11.57
2023-03-22T07:08:41.310Z,10.60
2023-03-22T07:11:12.551Z,13.17
2023-03-22T07:13:41.093Z,11.47
2023-03-22T07:16:12.983Z,11.27
2023-03-22T07:18:49.442Z,12.00
2023-03-22T07:21:17.631Z,11.20
2023-03-22T07:23:49.801Z,12.20
2023-03-22T07:26:19.762Z,12.20
2023-03-22T07:28:49.821Z,11.33
2023-03-22T07:31:18.803Z,11.33
2023-03-22T07:33:52.606Z,16.70
2023-03-22T07:36:25.557Z,11.33
2023-03-22T07:38:54.109Z,10.53
2023-03-22T07:41:30.582Z,11.37
2023-03-22T07:44:36.763Z,10.93
2023-03-22T07:47:10.001Z,10.73
2023-03-22T07:49:51.639Z,10.53
2023-03-22T07:52:25.953Z,11.10
2023-03-22T07:54:54.612Z,12.63
2023-03-22T07:57:21.954Z,13.57
2023-03-22T07:59:58.932Z,11.60
2023-03-22T08:02:45.708Z,10.70
2023-03-22T08:05:32.763Z,11.00
2023-03-22T08:08:02.475Z,10.03
2023-03-22T08:10:32.087Z,10.73
2023-03-22T08:12:59.727Z,10.23
2023-03-22T08:15:27.878Z,10.80
2023-03-22T08:18:03.931Z,9.60
2023-03-22T08:20:38.748Z,9.70
2023-03-22T08:23:16.630Z,10.20
2023-03-22T08:26:06.794Z,9.50
2023-03-22T08:28:41.588Z,10.50
2023-03-22T08:31:17.143Z,10.10
2023-03-22T08:36:37.979Z,9.17
2023-03-22T08:39:05.826Z,8.37
2023-03-22T08:41:42.978Z,9.50
2023-03-22T08:44:10.742Z,9.13
2023-03-22T08:46:37.984Z,8.47
2023-03-22T08:49:05.621Z,8.37
2023-03-22T08:51:41.072Z,9.17
2023-03-22T08:54:28.139Z,9.57
2023-03-22T08:57:08.262Z,10.20
2023-03-22T08:59:58.175Z,8.07
2023-03-22T09:02:37.124Z,7.77
2023-03-22T09:05:05.740Z,8.13
2023-03-22T09:07:33.432Z,7.43
2023-03-22T09:10:13.149Z,8.00
2023-03-22T09:12:43.505Z,9.10
2023-03-22T09:15:11.320Z,9.00
2023-03-22T09:17:41.595Z,9.27
2023-03-22T09:20:13.058Z,7.07
2023-03-22T09:22:46.387Z,7.97
2023-03-22T09:25:19.019Z,7.40
2023-03-22T09:27:50.042Z,7.10
2023-03-22T09:30:18.224Z,8.00
2023-03-22T09:32:45.952Z,7.40
2023-03-22T09:38:09.870Z,12.70
2023-03-22T09:41:02.456Z,8.03
2023-03-22T09:43:53.965Z,6.73
2023-03-22T09:46:52.247Z,6.80
2023-03-22T09:49:50.531Z,7.33
2023-03-22T09:52:20.985Z,6.80
2023-03-22T09:54:50.443Z,7.10
2023-03-22T09:57:37.604Z,7.77
2023-03-22T10:00:49.239Z,6.43
2023-03-22T10:04:26.516Z,6.43
2023-03-22T10:07:41.631Z,6.57
2023-03-22T10:10:23.546Z,6.50
2023-03-22T10:13:03.237Z,6.33
2023-03-22T10:15:57.059Z,6.10
2023-03-22T10:18:57.714Z,6.20
2023-03-22T10:21:27.415Z,16.60
2023-03-22T10:24:27.868Z,7.57
2023-03-22T10:26:59.104Z,6.67
2023-03-22T10:29:39.883Z,6.40
2023-03-22T10:32:42.800Z,6.13
2023-03-22T10:35:19.061Z,5.30
2023-03-22T10:37:56.028Z,5.43
2023-03-22T10:40:36.650Z,5.40
2023-03-22T10:43:39.780Z,5.80
2023-03-22T10:46:19.333Z,5.40
2023-03-22T10:48:58.594Z,4.80
2023-03-22T10:51:46.592Z,5.37
2023-03-22T10:54:19.297Z,5.70
2023-03-22T10:56:48.974Z,4.90
2023-03-22T10:59:57.484Z,4.37
2023-03-22T11:02:32.403Z,4.70
2023-03-22T11:05:23.080Z,6.20
2023-03-22T11:07:51.129Z,5.30
2023-03-22T11:10:35.959Z,6.00
2023-03-22T11:13:21.477Z,4.83
2023-03-22T11:16:02.703Z,4.07
2023-03-22T11:18:34.880Z,5.03
2023-03-22T11:21:15.974Z,4.43
2023-03-22T11:23:57.411Z,4.60
2023-03-22T11:26:38.796Z,4.07
2023-03-22T11:29:19.420Z,4.27
2023-03-22T11:32:00.198Z,4.77
2023-03-22T11:34:31.810Z,4.90
2023-03-22T11:37:09.087Z,4.50
2023-03-22T11:39:36.454Z,3.53
2023-03-22T11:42:06.866Z,4.23
2023-03-22T11:44:38.909Z,4.03
2023-03-22T11:47:13.072Z,3.80
2023-03-22T11:49:56.557Z,3.70
2023-03-22T11:52:27.830Z,3.30
2023-03-22T11:55:01.755Z,3.63
2023-03-22T11:57:37.979Z,3.63
2023-03-22T12:00:21.910Z,4.23
2023-03-22T12:03:03.675Z,3.83
2023-03-22T12:05:44.411Z,4.63
2023-03-22T12:08:28.082Z,4.10
2023-03-22T12:11:22.601Z,4.20
2023-03-22T12:14:01.592Z,4.10
2023-03-22T12:16:46.808Z,4.77
2023-03-22T12:19:58.570Z,4.70
2023-03-22T12:22:36.390Z,4.97
2023-03-22T12:25:12.423Z,4.00
2023-03-22T12:27:53.078Z,3.83
2023-03-22T12:30:33.675Z,3.57
2023-03-22T12:33:29.511Z,5.23
2023-03-22T12:36:07.869Z,4.30
2023-03-22T12:38:53.752Z,4.40
2023-03-22T12:41:51.050Z,4.07
2023-03-22T12:44:37.021Z,3.37
2023-03-22T12:47:24.582Z,3.40
2023-03-22T12:50:13.465Z,3.57
2023-03-22T12:53:06.559Z,4.00
2023-03-22T12:55:41.623Z,4.03
2023-03-22T12:58:14.853Z,4.10
2023-03-22T13:01:19.653Z,4.00
2023-03-22T13:03:54.837Z,3.57
2023-03-22T13:06:59.941Z,3.80
2023-03-22T13:09:51.396Z,3.00
2023-03-22T13:12:29.892Z,3.40
2023-03-22T13:15:41.731Z,3.00
2023-03-22T13:19:05.311Z,2.60
2023-03-22T13:21:38.668Z,2.77
2023-03-22T13:24:06.719Z,2.70
2023-03-22T13:26:54.204Z,2.73
2023-03-22T13:29:38.256Z,3.23
2023-03-22T13:32:29.950Z,2.50
2023-03-22T13:35:00.343Z,3.13
2023-03-22T13:37:49.693Z,2.73
2023-03-22T13:40:37.907Z,3.00
2023-03-22T13:43:29.183Z,2.60
2023-03-22T13:46:37.151Z,2.93
2023-03-22T13:49:45.958Z,3.47
2023-03-22T13:52:36.380Z,4.03
2023-03-22T13:55:50.101Z,3.20
2023-03-22T13:58:36.583Z,3.00
2023-03-22T14:01:29.404Z,2.87
2023-03-22T14:04:10.812Z,3.20
2023-03-22T14:06:55.100Z,2.60
2023-03-22T14:09:54.004Z,2.33
2023-03-22T14:13:06.038Z,2.43
2023-03-22T14:15:45.347Z,3.70
2023-03-22T14:18:36.574Z,3.30
2023-03-22T14:21:16.853Z,2.73
